Latest Weather Observations for Pallamana

IDS60901

Issued at 3:21 pm CST Wednesday 20 June 2018 (issued every 10 minutes, with the page automatically refreshed every 10 minutes)

About weather observations | Map of Adelaide area stations | Latest observations for Adelaide area | Other Formats
Station Details ID: 024584 Name: PALLAMANA AERODROME Lat: -35.06 Lon: 139.23 Height: 45.0 m
Data from the previous 72 hours. | See also: Recent months at Pallamana
Date/Time
CST
Temp
°C
App
Temp
°C
Dew
Point
°C
Rel
Hum
%
Delta-T
°C
Wind Press
QNH
hPa
Press
MSL
hPa
Rain since
9am
mm
Dir  Spd
km/h
Gust
km/h
Spd
kts
Gust
kts
20/03:00pm 15.9 12.3 3.1 42 5.8 N 11 15 6 8 1024.9 1025.0 0.0
20/02:30pm 15.6 11.5 2.3 40 5.9 NE 13 17 7 9 1024.7 1024.8 0.0
20/02:00pm 15.2 10.7 2.3 42 5.7 NNE 15 20 8 11 1024.7 1024.8 0.0
20/01:30pm 14.8 9.5 2.0 42 5.6 N 19 26 10 14 1025.1 1025.2 0.0
20/01:00pm 14.2 8.8 2.7 46 5.1 N 20 28 11 15 1025.3 1025.4 0.0
20/12:30pm 13.6 8.8 2.7 47 4.8 N 17 20 9 11 1025.3 1025.4 0.0
20/12:00pm 12.9 8.2 2.9 50 4.4 N 17 20 9 11 1025.8 1025.9 0.0
20/11:30am 12.5 7.4 3.2 53 4.1 N 19 26 10 14 1026.2 1026.3 0.0
20/11:00am 11.3 7.5 4.1 61 3.2 NNE 13 17 7 9 1026.4 1026.5 0.0
20/10:30am 10.2 5.9 5.1 70 2.3 N 17 20 9 11 1026.7 1026.8 0.0
20/10:00am 8.7 5.5 5.1 78 1.6 N 11 15 6 8 1027.2 1027.3 0.0
20/09:30am 7.1 4.2 4.8 85 1.0 N 9 11 5 6 1026.9 1027.0 0.0
20/09:00am 6.1 3.1 4.2 88 0.8 N 9 13 5 7 1026.4 1026.5 0.0
20/08:30am 5.0 3.3 3.8 92 0.5 NW 2 7 1 4 1026.0 1026.1 0.0
20/08:00am 4.3 1.7 3.3 93 0.4 N 6 9 3 5 1026.1 1026.2 0.0
20/07:30am 3.4 1.8 2.4 93 0.4 CALM 0 0 0 0 1025.5 1025.6 0.0
20/07:00am 4.6 3.2 3.4 92 0.5 CALM 0 0 0 0 1025.4 1025.5 0.0
20/06:30am 4.4 3.0 3.7 95 0.3 CALM 0 0 0 0 1025.1 1025.2 0.0
20/06:00am 4.8 3.0 3.6 92 0.5 E 2 6 1 3 1024.9 1025.0 0.0
20/05:30am 4.7 3.3 3.7 93 0.4 CALM 0 0 0 0 1024.9 1025.0 0.0
20/05:00am 5.0 3.6 3.8 92 0.5 CALM 0 0 0 0 1024.6 1024.7 0.0
20/04:30am 4.8 2.3 3.8 93 0.4 ENE 6 7 3 4 1024.6 1024.7 0.0
20/04:00am 4.9 3.6 3.9 93 0.4 CALM 0 0 0 0 1024.7 1024.8 0.0
20/03:30am 4.9 2.4 3.7 92 0.5 NW 6 7 3 4 1024.5 1024.6 0.0
20/03:00am 4.9 2.3 3.4 90 0.6 NNW 6 7 3 4 1024.4 1024.5 0.0
20/02:30am 5.3 2.6 3.6 89 0.7 NW 7 9 4 5 1024.6 1024.7 0.0
20/02:00am 5.2 2.5 3.8 91 0.6 N 7 9 4 5 1024.9 1025.0 0.0
20/01:30am 4.7 2.9 3.5 92 0.5 N 2 7 1 4 1024.9 1025.0 0.0
20/01:00am 4.5 3.1 3.3 92 0.5 CALM 0 0 0 0 1024.8 1024.9 0.0
20/12:30am 4.9 3.6 3.9 93 0.4 CALM 0 0 0 0 1025.0 1025.1 0.0
20/12:00am 4.8 2.2 3.3 90 0.6 N 6 6 3 3 1025.2 1025.3 0.0
 
Date/Time
CST
Temp
°C
App
Temp
°C
Dew
Point
°C
Rel
Hum
%
Delta-T
°C
Wind Press
QNH
hPa
Press
MSL
hPa
Rain since
9am
mm
Dir  Spd
km/h
Gust
km/h
Spd
kts
Gust
kts
19/11:30pm 5.3 2.8 3.6 89 0.7 NW 6 7 3 4 1025.1 1025.2 0.0
19/11:00pm 5.7 2.6 3.8 87 0.8 NNW 9 13 5 7 1024.9 1025.0 0.0
19/10:30pm 6.3 2.9 3.9 85 1.0 N 11 15 6 8 1024.6 1024.7 0.0
19/10:00pm 6.4 2.7 4.3 86 0.9 N 13 17 7 9 1024.9 1025.0 0.0
19/09:30pm 6.0 2.1 3.6 84 1.0 N 13 15 7 8 1025.1 1025.2 0.0
19/09:00pm 6.2 2.8 3.8 85 1.0 N 11 15 6 8 1025.4 1025.5 0.0
19/08:30pm 6.8 3.1 4.5 85 1.0 NNW 13 17 7 9 1025.4 1025.5 0.0
19/08:00pm 7.2 3.1 4.2 81 1.3 NNW 15 19 8 10 1025.4 1025.5 0.0
19/07:30pm 6.3 2.8 3.7 83 1.1 N 11 13 6 7 1025.0 1025.1 0.0
19/07:00pm 6.5 3.5 3.9 83 1.1 N 9 13 5 7 1025.2 1025.3 0.0
19/06:30pm 6.7 3.3 3.9 82 1.2 N 11 11 6 6 1025.4 1025.5 0.0
19/06:00pm 8.3 5.4 4.4 76 1.7 N 9 13 5 7 1025.3 1025.4 0.0
19/05:30pm 9.2 5.9 4.7 73 2.0 NNW 11 13 6 7 1025.2 1025.3 0.0
19/05:00pm 10.5 6.8 4.7 67 2.6 N 13 15 7 8 1025.1 1025.2 0.0
19/04:30pm 11.7 8.4 4.6 62 3.2 NNW 11 15 6 8 1025.1 1025.2 0.0
19/04:00pm 12.2 8.4 3.9 57 3.7 NW 13 17 7 9 1025.2 1025.3 0.0
19/03:30pm 12.7 8.1 3.5 53 4.1 NW 17 20 9 11 1024.9 1025.0 0.0
19/03:00pm 13.0 8.5 4.4 56 3.9 N 17 20 9 11 1024.7 1024.8 0.0
19/02:30pm 13.2 9.1 4.4 55 4.0 N 15 20 8 11 1024.8 1024.9 0.0
19/02:00pm 13.6 9.4 3.6 51 4.5 NNW 15 20 8 11 1024.8 1024.9 0.0
19/01:30pm 14.0 9.8 3.9 50 4.6 N 15 22 8 12 1025.1 1025.2 0.0
19/01:00pm 13.3 9.2 4.6 55 4.0 NNW 15 24 8 13 1025.5 1025.6 0.0
19/12:30pm 12.5 7.1 4.6 58 3.6 NNE 22 32 12 17 1026.1 1026.2 0.0
19/12:00pm 11.4 5.2 4.5 62 3.1 NNE 26 30 14 16 1026.5 1026.6 0.0
19/11:30am 11.0 4.8 4.5 64 2.9 NNE 26 33 14 18 1027.1 1027.2 0.0
19/11:00am 10.6 4.0 4.3 65 2.8 N 28 35 15 19 1027.3 1027.4 0.0
19/10:30am 10.5 4.3 4.4 66 2.7 N 26 32 14 17 1027.8 1027.9 0.0
19/10:00am 9.8 4.4 4.6 70 2.3 NNE 22 28 12 15 1027.9 1028.0 0.0
19/09:30am 8.7 3.9 4.9 77 1.7 NNE 19 24 10 13 1028.0 1028.1 0.0
19/09:00am 7.9 4.2 4.7 80 1.4 NNE 13 17 7 9 1027.9 1028.0 0.0
19/08:30am 6.8 4.0 5.0 88 0.8 N 9 11 5 6 1028.3 1028.4 0.0
19/08:00am 5.5 2.5 4.1 91 0.6 N 9 11 5 6 1028.1 1028.2 0.0
19/07:30am 5.2 2.1 3.8 91 0.6 NNW 9 11 5 6 1028.2 1028.3 0.0
19/07:00am 6.0 2.2 4.1 88 0.8 NNE 13 15 7 8 1028.0 1028.1 0.0
19/06:30am 7.0 3.8 4.9 86 0.9 NNE 11 13 6 7 1028.0 1028.1 0.0
19/06:00am 7.5 4.3 5.0 84 1.1 N 11 11 6 6 1028.2 1028.3 0.0
19/05:30am 7.3 5.0 5.5 88 0.8 N 7 9 4 5 1028.1 1028.2 0.0
19/05:00am 7.2 4.4 5.2 87 0.9 N 9 11 5 6 1028.0 1028.1 0.0
19/04:30am 7.3 4.5 5.0 85 1.0 N 9 9 5 5 1028.1 1028.2 0.0
19/04:00am 7.5 5.0 5.0 84 1.1 NNE 7 9 4 5 1028.6 1028.7 0.0
19/03:30am 7.3 4.4 4.8 84 1.1 NE 9 11 5 6 1028.3 1028.4 0.0
19/03:00am 7.6 4.7 4.9 83 1.2 ENE 9 13 5 7 1028.0 1028.1 0.0
19/02:30am 7.9 5.1 5.2 83 1.2 ENE 9 11 5 6 1028.3 1028.4 0.0
19/02:00am 8.6 5.5 5.5 81 1.4 E 11 15 6 8 1028.5 1028.6 0.0
19/01:30am 9.0 6.3 5.7 80 1.5 ENE 9 13 5 7 1028.7 1028.8 0.0
19/01:00am 9.1 5.9 5.3 77 1.7 E 11 13 6 7 1028.7 1028.8 0.0
19/12:30am 9.2 5.8 6.1 81 1.4 E 13 15 7 8 1028.2 1028.3 0.0
19/12:00am 9.1 7.1 7.2 88 0.9 ESE 7 11 4 6 1028.6 1028.7 0.0
 
Date/Time
CST
Temp
°C
App
Temp
°C
Dew
Point
°C
Rel
Hum
%
Delta-T
°C
Wind Press
QNH
hPa
Press
MSL
hPa
Rain since
9am
mm
Dir  Spd
km/h
Gust
km/h
Spd
kts
Gust
kts
18/11:30pm 9.3 7.6 7.4 88 0.9 SE 6 7 3 4 1029.4 1029.5 0.0
18/11:00pm 9.5 7.7 7.2 85 1.1 SSW 6 7 3 4 1029.7 1029.8 0.0
18/10:30pm 9.5 7.1 6.9 84 1.2 SW 9 11 5 6 1029.9 1030.0 0.0
18/10:00pm 9.6 7.5 6.8 83 1.3 SW 7 7 4 4 1029.6 1029.7 0.0
18/09:30pm 9.3 6.9 6.9 85 1.1 WSW 9 11 5 6 1029.1 1029.2 0.0
18/09:00pm 8.9 8.1 6.7 86 1.0 CALM 0 4 0 2 1028.4 1028.5 0.0
18/08:30pm 9.0 6.8 6.4 84 1.2 SSE 7 9 4 5 1028.9 1029.0 0.0
18/08:00pm 8.9 6.8 6.0 82 1.3 S 6 7 3 4 1029.6 1029.7 0.0
18/07:30pm 8.9 6.2 5.8 81 1.4 SW 9 13 5 7 1029.4 1029.5 0.0
18/07:00pm 8.0 4.8 5.1 82 1.3 SW 11 13 6 7 1029.3 1029.4 0.0
18/06:30pm 8.5 5.0 5.4 81 1.4 SW 13 15 7 8 1029.2 1029.3 0.0
18/06:00pm 9.2 5.8 5.9 80 1.5 SW 13 15 7 8 1029.2 1029.3 0.0
18/05:30pm 9.3 5.8 5.5 77 1.7 SW 13 15 7 8 1029.2 1029.3 0.0
18/05:00pm 10.4 6.6 5.8 73 2.1 SW 15 17 8 9 1029.2 1029.3 0.0
18/04:30pm 11.7 8.3 6.1 68 2.6 SW 13 15 7 8 1029.2 1029.3 0.0
18/04:00pm 12.6 8.4 5.7 63 3.2 SSW 17 24 9 13 1029.1 1029.2 0.0
18/03:30pm 12.6 9.5 5.7 63 3.2 SSW 11 15 6 8 1029.0 1029.1 0.0
18/03:00pm 12.1 8.6 5.6 64 3.0 S 13 17 7 9 1029.1 1029.2 0.0
18/02:30pm 12.3 9.3 5.9 65 3.0 S 11 15 6 8 1029.3 1029.4 0.0
18/02:00pm 11.9 9.3 5.9 66 2.8 S 9 15 5 8 1029.4 1029.5 0.0
18/01:30pm 12.3 9.2 5.6 63 3.1 SSE 11 15 6 8 1029.5 1029.6 0.0
18/01:00pm 12.3 8.9 5.9 65 3.0 SSE 13 17 7 9 1029.8 1029.9 0.0
18/12:30pm 12.4 9.7 5.5 63 3.2 SSE 9 15 5 8 1030.2 1030.3 0.0
18/12:00pm 12.2 9.2 6.0 66 2.9 S 11 19 6 10 1030.8 1030.9 0.0
18/11:30am 12.5 9.9 6.3 66 2.9 SSE 9 13 5 7 1031.1 1031.2 0.0
18/11:00am 11.5 9.0 6.4 71 2.4 SE 9 15 5 8 1031.6 1031.7 0.0
18/10:30am 11.3 9.5 7.1 75 2.0 S 6 11 3 6 1031.8 1031.9 0.0
18/10:00am 10.8 8.8 7.0 77 1.8 SSW 7 13 4 7 1031.6 1031.7 0.0
18/09:30am 9.8 7.2 7.7 87 1.0 WSW 11 13 6 7 1031.4 1031.5 0.0
18/09:00am 9.3 6.8 8.0 92 0.6 W 11 15 6 8 1031.2 1031.3 1.0
18/08:30am 8.7 5.7 7.9 95 0.4 W 13 17 7 9 1030.8 1030.9 1.0
18/08:00am 8.2 4.4 7.6 96 0.3 WSW 17 20 9 11 1030.4 1030.5 1.0
18/07:30am 8.0 4.9 7.1 94 0.4 WSW 13 15 7 8 1030.2 1030.3 1.0
18/07:00am 8.0 4.5 7.1 94 0.4 SW 15 17 8 9 1029.8 1029.9 1.0
18/06:30am 7.3 3.7 6.6 95 0.3 WSW 15 19 8 10 1029.7 1029.8 1.0
18/06:00am 7.4 3.8 6.7 95 0.3 WSW 15 19 8 10 1029.6 1029.7 1.0
18/05:30am 6.7 2.6 6.0 95 0.3 WSW 17 19 9 10 1029.7 1029.8 1.0
18/05:00am 6.7 2.6 6.0 95 0.3 WSW 17 19 9 10 1029.4 1029.5 1.0
18/04:30am 6.8 3.1 6.1 95 0.3 WSW 15 19 8 10 1029.5 1029.6 1.0
18/04:00am 7.6 4.4 6.9 95 0.3 W 13 17 7 9 1029.5 1029.6 1.0
18/03:30am 7.5 3.5 6.8 95 0.3 WSW 17 20 9 11 1029.7 1029.8 1.0
18/03:00am 7.2 3.9 6.5 95 0.3 W 13 17 7 9 1029.7 1029.8 0.8
18/02:30am 7.0 4.1 6.3 95 0.3 W 11 11 6 6 1029.6 1029.7 0.8
18/02:00am 6.8 5.1 5.9 94 0.4 S 4 7 2 4 1029.6 1029.7 0.8
18/01:36am 7.4 5.9 6.7 95 0.3 SSE 4 6 2 3 1029.4 1029.5 0.8
18/01:30am 7.6 5.7 6.7 94 0.4 SSE 6 6 3 3 1029.4 1029.5 0.8
18/01:00am 7.9 5.5 6.8 93 0.5 SSW 9 13 5 7 1029.7 1029.8 0.6
18/12:59am 7.9 5.5 6.8 93 0.5 SSW 9 13 5 7 1029.7 1029.8 0.6
18/12:54am 7.7 5.2 6.6 93 0.5 SSW 9 11 5 6 1029.7 1029.8 0.6
18/12:46am 7.2 5.0 6.3 94 0.4 SW 7 9 4 5 1029.7 1029.8 0.6
18/12:30am 7.1 4.9 6.0 93 0.5 SW 7 9 4 5 1029.7 1029.8 0.6
18/12:00am 7.9 5.9 6.1 88 0.8 SSE 6 7 3 4 1029.7 1029.8 0.6
 
Date/Time
CST
Temp
°C
App
Temp
°C
Dew
Point
°C
Rel
Hum
%
Delta-T
°C
Wind Press
QNH
hPa
Press
MSL
hPa
Rain since
9am
mm
Dir  Spd
km/h
Gust
km/h
Spd
kts
Gust
kts
17/11:30pm 8.9 5.3 6.7 86 1.0 SSE 15 20 8 11 1029.7 1029.8 0.6
17/11:00pm 9.2 5.9 6.4 83 1.3 SSW 13 19 7 10 1029.7 1029.8 0.6
17/10:30pm 8.7 6.1 6.3 85 1.1 S 9 13 5 7 1029.8 1029.9 0.6
17/10:00pm 9.5 5.3 5.8 78 1.7 S 17 24 9 13 1029.7 1029.8 0.6
17/09:30pm 9.2 4.7 6.1 81 1.4 SW 19 22 10 12 1029.2 1029.3 0.6
17/09:00pm 8.6 5.6 6.0 84 1.2 SSW 11 13 6 7 1029.3 1029.4 0.6
17/08:30pm 9.7 4.7 4.8 71 2.2 SSW 20 30 11 16 1029.2 1029.3 0.6
17/08:00pm 9.2 4.8 4.9 74 1.9 SW 17 20 9 11 1028.8 1028.9 0.6
17/07:30pm 9.9 5.6 5.2 72 2.1 SW 17 20 9 11 1028.7 1028.8 0.6
17/07:00pm 10.0 5.1 4.9 70 2.3 SW 20 24 11 13 1028.7 1028.8 0.6
17/06:45pm 10.4 3.9 4.6 67 2.6 SW 28 41 15 22 1028.6 1028.7 0.6
17/06:30pm 10.5 6.1 4.9 68 2.5 SW 17 20 9 11 1028.5 1028.6 0.6
17/06:00pm 10.8 5.0 4.5 65 2.8 SW 24 32 13 17 1028.0 1028.1 0.6
17/05:30pm 10.8 6.2 5.6 70 2.4 SSW 19 24 10 13 1027.7 1027.8 0.6
17/05:00pm 10.9 6.6 5.2 68 2.6 SSW 17 22 9 12 1027.5 1027.6 0.6
17/04:30pm 11.3 4.7 5.9 69 2.5 SSW 30 39 16 21 1027.4 1027.5 0.6
17/04:00pm 12.1 5.7 6.8 70 2.5 SW 30 35 16 19 1026.9 1027.0 0.6
17/03:30pm 11.8 7.7 6.0 67 2.7 SSW 17 24 9 13 1026.9 1027.0 0.6

Latest Capital City Observations: Canberra | Sydney | Melbourne | Brisbane | Adelaide | Perth | Hobart | Darwin

Other Formats:

Comma delimited format used in spreadsheet applications
http://www.bom.gov.au/fwo/IDS60901/IDS60901.95818.axf

JavaScript Object Notation format (JSON) in row-major order
http://www.bom.gov.au/fwo/IDS60901/IDS60901.95818.json